This is the latest recevied weather packets stored in our database for station/object W7KKE-3. If no packets are shown the sender has not sent any weather packets the latest 10 day(s).
| Time | Temp. | Humidity | Pressure | Rain* | Wind** | Luminosity | Snow |
|---|---|---|---|---|---|---|---|
| 1777843004 | 20.56° C | 69% | 1006.2 hPa | 0 mm | - | - | - |
| 1777842709 | 20.56° C | 70% | 1006.2 hPa | 0 mm | - | - | - |
| 1777842404 | 20.56° C | 71% | 1006.1 hPa | 0 mm | - | - | - |
| 1777842107 | 20° C | 72% | 1006.2 hPa | 0 mm | - | - | - |
| 1777841805 | 20° C | 72% | 1006.2 hPa | 0 mm | - | - | - |
| 1777841504 | 20° C | 70% | 1006.2 hPa | 0 mm | - | - | - |
| 1777841205 | 20° C | 70% | 1006.2 hPa | 0 mm | - | - | - |
| 1777840906 | 20° C | 71% | 1006.3 hPa | 0 mm | - | - | - |
| 1777840605 | 20.56° C | 71% | 1006.3 hPa | 0 mm | - | - | - |
| 1777840305 | 20.56° C | 69% | 1006.3 hPa | 0 mm | - | - | - |
| 1777840005 | 20.56° C | 69% | 1006.3 hPa | 0 mm | - | - | - |
| 1777839706 | 21.11° C | 70% | 1006.4 hPa | 0 mm | - | - | - |
| 1777839405 | 21.11° C | 70% | 1006.3 hPa | 0 mm | - | - | - |
| 1777839108 | 21.11° C | 69% | 1006.4 hPa | 0 mm | - | - | - |
| 1777838857 | 21.67° C | 69% | 1006.4 hPa | 0 mm | - | - | - |
| 1777838806 | 21.67° C | 69% | 1006.4 hPa | 0 mm | - | - | - |
| 1777837904 | 22.22° C | 66% | 1006.5 hPa | 0 mm | - | - | - |
| 1777837604 | 22.22° C | 67% | 1006.5 hPa | 0 mm | - | - | - |
| 1777837338 | 22.22° C | 69% | 1006.4 hPa | 0 mm | - | - | - |
| 1777837305 | 22.22° C | 69% | 1006.4 hPa | 0 mm | - | - | - |
| 1777837005 | 22.22° C | 68% | 1006.5 hPa | 0 mm | - | - | - |
| 1777835805 | 21.67° C | 68% | 1006.6 hPa | 0 mm | - | - | - |
| 1777835204 | 22.22° C | 67% | 1006.6 hPa | 0 mm | - | - | - |
| 1777834608 | 21.11° C | 71% | 1006.7 hPa | 0 mm | - | - | - |
| 1777834307 | 21.11° C | 71% | 1006.7 hPa | 0 mm | - | - | - |
* Rain latest hour (hover to see other rain measurements)
** Current wind speed in m/s (hover to see current wind gust speed)